Etusivu
METAR-TAF:

METAR-TAF

Lentoasemat :

Metlakatla, Alaska, Yhdysvallat

Leveyspiiri: 55-07-52N, Pituuspiiri: 131-34-41W, korkeus merenpinnasta: 0 m

Tämänhetkinen sää

Tämä raportti tehtiin 35 minuuttia sitten, kello 02.48 UTC
Tuuli 12 kn etelästä/kaakosta puuskistuen 18 kn:hen
Lämpötila 10°C
Kosteus 87%
Ilmanpaine 1010 hPa
Näkyvyys: 16.1 km
Muutamia pilviä 800 ft:n korkeudessa
Hajonneita pilviä 1300 ft:n korkeudessa
Pilvistä 4800 ft:n korkeudessa
heikkoa sadetta

METAR: PAMM 270248Z AUTO 15012G18KT 10SM -RA FEW008 BKN013 OVC048 10/08 A2982 RMK AO2 P0002

Aika: 19:23 (03:23 UTC)


TAF: puuttuu

Säähavainnot ja -ennusteet yli 4000 lentoasemalta (METAR- ja TAF-raportit).

Käytössä olevat sääasemat on merkitty karttaan keltaisilla ja punaisilla pisteillä.

Aseta hiiri pisteen päälle nähdäksesi sääaseman nimen.

Klikkaa sitten nähdäksesi säähavainnot ja -ennusteet.

Kartan vaihtaminen: klikkaa mustalla rastilla varustettuja vihreitä pisteitä, niin voit zoomata sisään; viivalla varustettua vihreää pistettä, niin voit zoomata ulos tai vihreitä nuolia, niin pääset viereisille kartoille.


METAR-TAF: